sensor_id;sensor_type;location;lat;lon;timestamp;P1;durP1;ratioP1;P2;durP2;ratioP2
49980;SDS011;35871;51.594;7.138;2022-10-31T07:13:40;7.40;;;5.47;;
49980;SDS011;35871;51.594;7.138;2022-10-31T07:18:47;8.30;;;6.18;;
49980;SDS011;35871;51.594;7.138;2022-10-31T07:23:49;8.80;;;6.55;;
49980;SDS011;35871;51.594;7.138;2022-10-31T07:28:56;8.15;;;6.20;;
49980;SDS011;35871;51.594;7.138;2022-10-31T07:34:01;8.70;;;6.80;;
49980;SDS011;35871;51.594;7.138;2022-10-31T07:39:03;7.57;;;5.85;;
49980;SDS011;35871;51.594;7.138;2022-10-31T07:44:28;9.10;;;6.00;;
49980;SDS011;35871;51.594;7.138;2022-10-31T07:49:44;8.25;;;6.60;;
49980;SDS011;35871;51.594;7.138;2022-10-31T08:00:30;9.43;;;6.40;;
49980;SDS011;35871;51.594;7.138;2022-10-31T08:05:38;7.03;;;4.70;;
49980;SDS011;35871;51.594;7.138;2022-10-31T08:10:45;9.00;;;5.55;;
49980;SDS011;35871;51.594;7.138;2022-10-31T08:15:46;7.65;;;5.63;;
49980;SDS011;35871;51.594;7.138;2022-10-31T08:20:59;7.97;;;6.43;;
49980;SDS011;35871;51.594;7.138;2022-10-31T08:26:30;11.70;;;7.60;;
49980;SDS011;35871;51.594;7.138;2022-10-31T08:31:31;15.70;;;9.18;;
49980;SDS011;35871;51.594;7.138;2022-10-31T08:37:07;12.93;;;8.15;;
49980;SDS011;35871;51.594;7.138;2022-10-31T08:42:45;11.73;;;8.00;;
49980;SDS011;35871;51.594;7.138;2022-10-31T08:47:48;11.38;;;8.00;;
49980;SDS011;35871;51.594;7.138;2022-10-31T08:52:52;17.08;;;8.00;;
49980;SDS011;35871;51.594;7.138;2022-10-31T09:04:30;12.90;;;7.47;;
49980;SDS011;35871;51.594;7.138;2022-10-31T09:09:34;15.93;;;8.48;;
49980;SDS011;35871;51.594;7.138;2022-10-31T09:14:36;14.15;;;8.00;;
49980;SDS011;35871;51.594;7.138;2022-10-31T09:19:44;13.68;;;8.05;;
49980;SDS011;35871;51.594;7.138;2022-10-31T09:24:48;11.98;;;8.73;;
49980;SDS011;35871;51.594;7.138;2022-10-31T09:29:49;14.95;;;9.55;;
49980;SDS011;35871;51.594;7.138;2022-10-31T09:35:02;12.52;;;8.63;;
49980;SDS011;35871;51.594;7.138;2022-10-31T09:40:09;12.15;;;9.10;;
49980;SDS011;35871;51.594;7.138;2022-10-31T09:51:30;15.60;;;9.85;;
49980;SDS011;35871;51.594;7.138;2022-10-31T09:56:35;15.48;;;10.40;;
49980;SDS011;35871;51.594;7.138;2022-10-31T10:35:51;15.23;;;10.70;;
49980;SDS011;35871;51.594;7.138;2022-10-31T10:40:53;12.75;;;9.70;;
49980;SDS011;35871;51.594;7.138;2022-10-31T11:02:18;16.50;;;10.68;;
49980;SDS011;35871;51.594;7.138;2022-10-31T11:07:36;15.38;;;10.23;;
49980;SDS011;35871;51.594;7.138;2022-10-31T11:12:56;17.73;;;10.60;;
49980;SDS011;35871;51.594;7.138;2022-10-31T11:17:59;15.43;;;10.82;;
49980;SDS011;35871;51.594;7.138;2022-10-31T11:23:02;18.90;;;9.73;;
49980;SDS011;35871;51.594;7.138;2022-10-31T11:28:09;16.25;;;10.40;;
49980;SDS011;35871;51.594;7.138;2022-10-31T11:38:46;17.58;;;11.00;;
49980;SDS011;35871;51.594;7.138;2022-10-31T11:43:50;19.15;;;10.80;;
49980;SDS011;35871;51.594;7.138;2022-10-31T11:48:54;16.08;;;9.65;;
49980;SDS011;35871;51.594;7.138;2022-10-31T11:53:59;18.10;;;9.48;;
49980;SDS011;35871;51.594;7.138;2022-10-31T12:09:42;18.77;;;12.10;;
49980;SDS011;35871;51.594;7.138;2022-10-31T12:26:02;17.83;;;9.82;;
49980;SDS011;35871;51.594;7.138;2022-10-31T12:57:33;15.32;;;9.30;;
49980;SDS011;35871;51.594;7.138;2022-10-31T13:02:56;14.05;;;8.73;;
49980;SDS011;35871;51.594;7.138;2022-10-31T13:18:32;12.65;;;8.98;;
49980;SDS011;35871;51.594;7.138;2022-10-31T13:39:47;14.20;;;8.90;;
